createdAt,value
2023-01-13T00:01:16.040Z,6.97
2023-01-13T00:03:43.072Z,7.40
2023-01-13T00:06:13.508Z,6.10
2023-01-13T00:08:40.159Z,6.25
2023-01-13T00:11:06.675Z,7.40
2023-01-13T00:13:35.350Z,7.10
2023-01-13T00:16:06.439Z,3.17
2023-01-13T00:18:33.972Z,5.50
2023-01-13T00:21:06.720Z,7.38
2023-01-13T00:23:34.865Z,5.93
2023-01-13T00:26:10.145Z,8.40
2023-01-13T00:28:37.289Z,5.63
2023-01-13T00:31:09.139Z,3.75
2023-01-13T00:33:36.229Z,4.45
2023-01-13T00:36:05.234Z,3.70
2023-01-13T00:38:34.275Z,3.92
2023-01-13T00:41:05.121Z,4.53
2023-01-13T00:45:58.256Z,6.87
2023-01-13T00:48:27.562Z,6.15
2023-01-13T00:51:27.595Z,5.93
2023-01-13T00:53:54.098Z,9.55
2023-01-13T00:56:39.193Z,10.30
2023-01-13T00:59:06.927Z,5.60
2023-01-13T01:01:33.590Z,6.07
2023-01-13T01:04:00.203Z,5.80
2023-01-13T01:06:34.481Z,7.97
2023-01-13T01:09:01.163Z,5.72
2023-01-13T01:11:33.007Z,8.32
2023-01-13T01:14:02.879Z,9.60
2023-01-13T01:16:31.513Z,10.38
2023-01-13T01:18:59.396Z,10.00
2023-01-13T01:21:28.137Z,6.68
2023-01-13T01:23:55.199Z,7.43
2023-01-13T01:26:23.956Z,10.68
2023-01-13T01:28:51.283Z,11.15
2023-01-13T01:31:23.167Z,10.60
2023-01-13T01:33:49.997Z,8.05
2023-01-13T01:36:19.365Z,10.80
2023-01-13T01:38:46.584Z,11.70
2023-01-13T01:41:19.377Z,6.50
2023-01-13T01:44:02.752Z,6.72
2023-01-13T01:46:30.853Z,8.02
2023-01-13T01:49:10.785Z,10.75
2023-01-13T01:51:45.904Z,12.35
2023-01-13T01:54:17.658Z,8.70
2023-01-13T01:56:45.418Z,11.38
2023-01-13T01:59:12.573Z,5.75
2023-01-13T02:01:41.041Z,11.52
2023-01-13T02:04:16.949Z,14.10
2023-01-13T02:06:46.811Z,15.57
2023-01-13T02:09:17.405Z,16.48
2023-01-13T02:12:03.225Z,8.65
2023-01-13T02:14:30.931Z,12.30
2023-01-13T02:17:21.493Z,15.30
2023-01-13T02:20:18.463Z,11.60
2023-01-13T02:23:35.943Z,16.98
2023-01-13T02:26:27.226Z,14.20
2023-01-13T02:29:32.099Z,18.02
2023-01-13T02:32:16.302Z,15.10
2023-01-13T02:34:53.406Z,12.30
2023-01-13T02:37:29.797Z,18.63
2023-01-13T02:40:25.056Z,13.70
2023-01-13T02:43:35.264Z,14.02
2023-01-13T02:46:09.445Z,17.98
2023-01-13T02:48:38.087Z,17.33
2023-01-13T02:51:16.062Z,12.00
2023-01-13T02:53:50.685Z,19.42
2023-01-13T02:56:18.024Z,22.98
2023-01-13T02:58:46.951Z,11.13
2023-01-13T03:01:13.630Z,15.82
2023-01-13T03:03:40.187Z,17.70
2023-01-13T03:06:37.599Z,17.98
2023-01-13T03:09:16.553Z,18.10
2023-01-13T03:12:09.600Z,16.25
2023-01-13T03:14:41.946Z,20.45
2023-01-13T03:17:16.820Z,16.60
2023-01-13T03:20:06.001Z,24.00
2023-01-13T03:22:39.692Z,21.13
2023-01-13T03:25:18.729Z,21.13
2023-01-13T03:28:10.926Z,15.90
2023-01-13T03:30:44.683Z,32.17
2023-01-13T03:33:22.482Z,19.33
2023-01-13T03:35:55.490Z,17.83
2023-01-13T03:40:57.042Z,19.95
2023-01-13T03:43:53.187Z,19.42
2023-01-13T03:46:46.890Z,20.50
2023-01-13T03:49:25.531Z,27.15
2023-01-13T03:51:57.011Z,19.35
2023-01-13T03:54:27.739Z,21.85
2023-01-13T03:56:59.247Z,25.58
2023-01-13T03:59:34.288Z,19.65
2023-01-13T04:02:03.559Z,26.27
2023-01-13T04:04:34.707Z,22.38
2023-01-13T04:07:15.740Z,17.02
2023-01-13T04:09:54.452Z,24.40
2023-01-13T04:12:51.341Z,28.77
2023-01-13T04:15:21.077Z,25.15
2023-01-13T04:17:47.559Z,23.67
2023-01-13T04:20:14.612Z,24.80
2023-01-13T04:22:41.092Z,18.02
2023-01-13T04:25:08.295Z,24.45
2023-01-13T04:27:35.078Z,27.17
2023-01-13T04:30:01.527Z,19.40
2023-01-13T04:32:28.091Z,25.15
2023-01-13T04:34:54.522Z,20.90
2023-01-13T04:37:21.291Z,28.60
2023-01-13T04:39:47.744Z,23.55
2023-01-13T04:42:14.218Z,23.08
2023-01-13T04:44:40.657Z,19.83
2023-01-13T04:47:07.209Z,25.02
2023-01-13T04:49:33.711Z,19.90
2023-01-13T04:52:00.248Z,28.23
2023-01-13T04:54:26.705Z,20.00
2023-01-13T04:56:53.147Z,20.85
2023-01-13T04:59:19.579Z,23.20
2023-01-13T05:01:46.071Z,17.95
2023-01-13T05:04:15.356Z,22.67
2023-01-13T05:06:41.832Z,18.05
2023-01-13T05:09:08.308Z,20.20
2023-01-13T05:11:53.348Z,20.92
2023-01-13T05:14:38.116Z,25.17
2023-01-13T05:17:04.671Z,25.70
2023-01-13T05:19:34.484Z,21.83
2023-01-13T05:22:21.071Z,28.02
2023-01-13T05:25:05.828Z,30.67
2023-01-13T05:27:32.377Z,28.98
2023-01-13T05:29:59.094Z,21.02
2023-01-13T05:32:28.025Z,25.10
2023-01-13T05:34:55.835Z,17.05
2023-01-13T05:37:23.489Z,18.70
2023-01-13T05:40:08.804Z,21.65
2023-01-13T05:42:54.315Z,20.40
2023-01-13T05:45:20.827Z,22.63
2023-01-13T05:47:47.346Z,22.10
2023-01-13T05:50:13.890Z,22.48
2023-01-13T05:52:40.339Z,18.20
2023-01-13T05:55:07.347Z,17.05
2023-01-13T05:57:33.750Z,22.52
2023-01-13T06:00:01.336Z,25.65
2023-01-13T06:02:28.033Z,20.23
2023-01-13T06:04:54.500Z,16.73
2023-01-13T06:07:20.951Z,15.25
2023-01-13T06:09:47.347Z,17.30
2023-01-13T06:12:14.456Z,20.08
2023-01-13T06:14:41.067Z,20.98
2023-01-13T06:17:13.276Z,16.58
2023-01-13T06:19:40.344Z,21.40
2023-01-13T06:22:18.345Z,15.50
2023-01-13T06:24:50.297Z,17.30
2023-01-13T06:27:17.831Z,14.65
2023-01-13T06:29:44.508Z,17.98
2023-01-13T06:32:18.935Z,15.60
2023-01-13T06:34:50.865Z,13.77
2023-01-13T06:37:21.562Z,11.65
2023-01-13T06:39:49.114Z,10.40
2023-01-13T06:45:15.761Z,12.60
2023-01-13T06:47:43.413Z,9.70
2023-01-13T06:50:10.790Z,12.57
2023-01-13T06:52:37.251Z,14.52
2023-01-13T06:55:04.268Z,9.57
2023-01-13T06:57:30.815Z,7.00
2023-01-13T06:59:57.294Z,10.73
2023-01-13T07:02:23.919Z,18.50
2023-01-13T07:04:50.495Z,9.75
2023-01-13T07:07:17.174Z,12.27
2023-01-13T07:09:43.635Z,11.15
2023-01-13T07:12:10.248Z,11.30
2023-01-13T07:14:55.134Z,10.70
2023-01-13T07:17:25.450Z,11.30
2023-01-13T07:19:52.519Z,11.45
2023-01-13T07:22:18.953Z,11.98
2023-01-13T07:24:45.548Z,15.68
2023-01-13T07:27:12.134Z,13.77
2023-01-13T07:29:38.745Z,11.65
2023-01-13T07:32:06.864Z,14.30
2023-01-13T07:34:33.533Z,14.68
2023-01-13T07:37:00.521Z,18.80
2023-01-13T07:39:27.023Z,12.85
2023-01-13T07:42:12.093Z,12.18
2023-01-13T07:44:38.560Z,13.82
2023-01-13T07:47:06.050Z,16.15
2023-01-13T07:49:33.155Z,14.48
2023-01-13T07:51:59.663Z,16.75
2023-01-13T07:54:39.646Z,14.13
2023-01-13T07:57:07.177Z,13.93
2023-01-13T07:59:33.725Z,17.17
2023-01-13T08:02:00.509Z,13.43
2023-01-13T08:04:27.204Z,16.35
2023-01-13T08:06:53.733Z,13.85
2023-01-13T08:09:20.213Z,17.13
2023-01-13T08:12:06.623Z,19.13
2023-01-13T08:14:33.163Z,14.13
2023-01-13T08:16:59.677Z,19.77
2023-01-13T08:19:26.155Z,12.07
2023-01-13T08:21:52.610Z,13.68
2023-01-13T08:24:19.048Z,11.82
2023-01-13T08:26:45.487Z,12.93
2023-01-13T08:29:14.683Z,12.85
2023-01-13T08:31:41.381Z,13.73
2023-01-13T08:34:07.958Z,19.63
2023-01-13T08:36:34.460Z,19.75
2023-01-13T08:39:00.983Z,14.07
2023-01-13T08:41:46.353Z,18.33
2023-01-13T08:44:12.848Z,15.20
2023-01-13T08:46:39.450Z,18.02
2023-01-13T08:49:05.930Z,14.30
2023-01-13T08:51:32.367Z,13.38
2023-01-13T08:53:58.991Z,21.17
2023-01-13T08:56:25.377Z,15.25
2023-01-13T08:58:51.833Z,18.92
2023-01-13T09:01:22.598Z,13.25
2023-01-13T09:03:49.212Z,18.27
2023-01-13T09:06:15.827Z,12.65
2023-01-13T09:08:43.461Z,17.33
2023-01-13T09:11:37.414Z,15.40
2023-01-13T09:14:04.197Z,21.98
2023-01-13T09:16:30.638Z,13.63
2023-01-13T09:18:57.181Z,21.58
2023-01-13T09:21:26.734Z,14.45
2023-01-13T09:23:53.271Z,19.15
2023-01-13T09:26:21.556Z,15.23
2023-01-13T09:28:48.076Z,22.15
2023-01-13T09:31:14.777Z,15.25
2023-01-13T09:33:59.707Z,20.58
2023-01-13T09:36:26.248Z,17.23
2023-01-13T09:38:52.829Z,20.60
2023-01-13T09:41:44.120Z,17.13
2023-01-13T09:44:18.877Z,19.10
2023-01-13T09:46:55.987Z,14.68
2023-01-13T09:49:34.492Z,14.90
2023-01-13T09:52:14.998Z,15.93
2023-01-13T09:54:51.720Z,20.48
2023-01-13T09:57:20.138Z,20.00
2023-01-13T09:59:47.653Z,19.40
2023-01-13T10:02:39.672Z,16.77
2023-01-13T10:05:12.624Z,21.02
2023-01-13T10:07:45.337Z,22.67
2023-01-13T10:10:18.922Z,20.13
2023-01-13T10:13:06.383Z,21.40
2023-01-13T10:15:32.891Z,15.85
2023-01-13T10:18:17.878Z,20.08
2023-01-13T10:21:11.064Z,21.20
2023-01-13T10:23:44.073Z,9.82
2023-01-13T10:28:57.548Z,16.02
2023-01-13T10:31:25.547Z,19.27
2023-01-13T10:34:00.210Z,16.17
2023-01-13T10:36:27.476Z,26.58
2023-01-13T10:39:07.160Z,25.45
2023-01-13T10:41:36.177Z,19.75
2023-01-13T10:44:07.720Z,21.27
2023-01-13T10:46:50.229Z,19.00
2023-01-13T10:49:33.105Z,18.80
2023-01-13T10:52:01.959Z,19.50
2023-01-13T10:54:28.925Z,22.30
2023-01-13T10:57:14.520Z,12.20
2023-01-13T10:59:41.049Z,17.95
2023-01-13T11:02:25.354Z,19.15
2023-01-13T11:04:55.717Z,21.33
2023-01-13T11:07:50.608Z,16.35
2023-01-13T11:10:24.601Z,18.85
2023-01-13T11:13:11.747Z,13.32
2023-01-13T11:16:01.363Z,16.70
2023-01-13T11:18:36.723Z,20.40
2023-01-13T11:21:09.517Z,17.90
2023-01-13T11:23:42.302Z,17.90
2023-01-13T11:26:16.397Z,16.63
2023-01-13T11:29:11.207Z,16.83
2023-01-13T11:31:47.273Z,17.10
2023-01-13T11:34:22.481Z,17.80
2023-01-13T11:36:55.394Z,19.27
2023-01-13T11:39:47.980Z,16.75
2023-01-13T11:42:41.339Z,15.60
2023-01-13T11:45:40.203Z,16.83
2023-01-13T11:48:14.682Z,17.23
2023-01-13T11:50:58.836Z,16.73
2023-01-13T11:53:35.477Z,14.18
2023-01-13T11:56:29.897Z,17.92
2023-01-13T11:58:59.344Z,12.98
2023-01-13T12:01:50.890Z,16.55
2023-01-13T12:04:42.710Z,13.23
2023-01-13T12:07:36.582Z,16.48
2023-01-13T12:10:09.909Z,21.20
2023-01-13T12:12:54.636Z,9.27
2023-01-13T12:15:21.737Z,13.77
2023-01-13T12:18:06.513Z,13.05
2023-01-13T12:21:03.874Z,16.35
2023-01-13T12:23:55.505Z,12.23
2023-01-13T12:26:22.670Z,20.13
2023-01-13T12:29:01.152Z,10.93
2023-01-13T12:31:29.296Z,14.70
2023-01-13T12:34:04.952Z,13.70
2023-01-13T12:36:49.571Z,17.40
2023-01-13T12:39:37.488Z,15.45
2023-01-13T12:42:41.662Z,12.23
2023-01-13T12:49:04.769Z,13.20
2023-01-13T12:51:55.735Z,16.38
2023-01-13T12:54:37.470Z,12.55
2023-01-13T12:57:32.543Z,14.68
2023-01-13T13:00:04.786Z,15.85
2023-01-13T13:02:34.295Z,11.18
2023-01-13T13:05:23.696Z,12.02
2023-01-13T13:08:29.189Z,10.45
2023-01-13T13:11:28.310Z,14.25
2023-01-13T13:13:54.731Z,8.63
2023-01-13T13:16:27.281Z,11.13
2023-01-13T13:19:22.433Z,16.55
2023-01-13T13:22:14.032Z,14.32
2023-01-13T13:25:01.283Z,16.42
2023-01-13T13:27:31.915Z,17.05
2023-01-13T13:30:11.470Z,15.48
2023-01-13T13:32:49.811Z,8.73
2023-01-13T13:35:28.218Z,8.20
2023-01-13T13:38:50.868Z,13.00
2023-01-13T13:41:41.195Z,11.93
2023-01-13T13:45:06.003Z,12.75
2023-01-13T13:47:36.861Z,13.07
2023-01-13T13:50:16.050Z,12.75
2023-01-13T13:52:42.706Z,17.55
2023-01-13T13:55:24.373Z,13.68
2023-01-13T13:57:53.877Z,10.25
2023-01-13T14:00:39.570Z,15.07
2023-01-13T14:03:19.784Z,11.13
2023-01-13T14:05:56.250Z,15.98
2023-01-13T14:08:23.029Z,13.95
2023-01-13T14:10:49.804Z,7.32
2023-01-13T14:13:30.799Z,14.38
2023-01-13T14:16:01.242Z,15.90
2023-01-13T14:18:30.643Z,10.23
2023-01-13T14:21:00.391Z,13.75
2023-01-13T14:23:30.100Z,17.33
2023-01-13T14:26:08.761Z,13.18
2023-01-13T14:28:40.214Z,14.15
2023-01-13T14:31:09.264Z,10.95
2023-01-13T14:33:47.441Z,10.98
2023-01-13T14:36:17.398Z,14.38
2023-01-13T14:39:03.460Z,8.95
2023-01-13T14:41:45.318Z,8.32
2023-01-13T14:44:24.370Z,16.83
2023-01-13T14:46:51.692Z,18.20
2023-01-13T14:49:40.233Z,19.75
2023-01-13T14:52:14.526Z,13.25
2023-01-13T14:54:40.904Z,12.18
2023-01-13T14:57:27.450Z,15.95
2023-01-13T15:00:18.673Z,10.90
2023-01-13T15:02:57.450Z,12.63
2023-01-13T15:05:26.824Z,10.80
2023-01-13T15:08:00.471Z,15.27
2023-01-13T15:10:31.016Z,14.00
2023-01-13T15:12:59.801Z,15.10
2023-01-13T15:15:32.644Z,16.35
2023-01-13T15:18:05.791Z,15.25
2023-01-13T15:20:32.150Z,16.27
2023-01-13T15:22:59.588Z,16.52
2023-01-13T15:25:35.279Z,15.20
2023-01-13T15:28:02.152Z,13.13
2023-01-13T15:30:29.846Z,24.00
2023-01-13T15:32:57.824Z,11.15
2023-01-13T15:35:26.744Z,24.85
2023-01-13T15:37:55.601Z,13.98
2023-01-13T15:40:23.685Z,16.65
2023-01-13T15:43:09.112Z,14.45
2023-01-13T15:45:55.904Z,11.65
2023-01-13T15:48:24.032Z,13.20
2023-01-13T15:50:50.666Z,12.95
2023-01-13T15:53:17.341Z,15.55
2023-01-13T15:55:46.579Z,12.43
2023-01-13T15:58:13.960Z,14.18
2023-01-13T16:00:41.605Z,19.83
2023-01-13T16:03:15.328Z,25.55
2023-01-13T16:05:42.490Z,14.13
2023-01-13T16:08:20.197Z,18.50
2023-01-13T16:10:47.309Z,17.33
2023-01-13T16:13:14.898Z,15.57
2023-01-13T16:15:44.570Z,14.55
2023-01-13T16:18:17.883Z,8.82
2023-01-13T16:20:44.614Z,10.90
2023-01-13T16:23:11.701Z,16.70
2023-01-13T16:25:38.919Z,17.30
2023-01-13T16:28:05.537Z,15.85
2023-01-13T16:30:36.890Z,17.30
2023-01-13T16:33:03.973Z,15.05
2023-01-13T16:35:31.985Z,12.88
2023-01-13T16:37:59.749Z,18.17
2023-01-13T16:40:33.213Z,14.77
2023-01-13T16:43:01.637Z,11.40
2023-01-13T16:45:28.092Z,13.20
2023-01-13T16:47:54.518Z,11.02
2023-01-13T16:50:27.480Z,11.60
2023-01-13T16:55:20.289Z,4.55
2023-01-13T16:57:46.664Z,8.57
2023-01-13T17:00:13.666Z,4.00
2023-01-13T17:02:40.142Z,7.43
2023-01-13T17:05:07.315Z,6.43
2023-01-13T17:07:34.001Z,14.05
2023-01-13T17:10:00.495Z,10.40
2023-01-13T17:12:27.031Z,13.98
2023-01-13T17:14:53.612Z,13.38
2023-01-13T17:17:24.511Z,13.55
2023-01-13T17:19:51.814Z,8.85
2023-01-13T17:22:19.434Z,8.48
2023-01-13T17:24:47.506Z,7.55
2023-01-13T17:27:17.139Z,7.65
2023-01-13T17:29:43.524Z,8.38
2023-01-13T17:32:15.705Z,11.05
2023-01-13T17:34:43.194Z,9.10
2023-01-13T17:39:57.943Z,14.25
2023-01-13T17:42:27.716Z,18.35
2023-01-13T17:44:54.659Z,15.38
2023-01-13T17:47:21.035Z,15.75
2023-01-13T17:49:47.384Z,16.58
2023-01-13T17:52:13.792Z,17.60
2023-01-13T17:54:42.866Z,14.55
2023-01-13T17:57:09.878Z,14.80
2023-01-13T17:59:36.258Z,12.20
2023-01-13T18:02:02.877Z,17.92
2023-01-13T18:04:30.790Z,10.40
2023-01-13T18:06:57.288Z,15.30
2023-01-13T18:09:23.855Z,14.77
2023-01-13T18:11:50.475Z,17.52
2023-01-13T18:14:17.079Z,23.25
2023-01-13T18:16:43.751Z,18.67
2023-01-13T18:19:29.588Z,12.27
2023-01-13T18:22:14.417Z,14.75
2023-01-13T18:24:59.709Z,16.70
2023-01-13T18:27:33.006Z,15.55
2023-01-13T18:30:00.481Z,18.25
2023-01-13T18:32:32.796Z,13.88
2023-01-13T18:35:06.162Z,11.05
2023-01-13T18:37:38.669Z,11.43
2023-01-13T18:40:05.980Z,16.25
2023-01-13T18:42:51.047Z,15.90
2023-01-13T18:45:24.333Z,11.20
2023-01-13T18:47:51.077Z,13.73
2023-01-13T18:50:19.891Z,16.55
2023-01-13T18:52:46.475Z,13.05
2023-01-13T18:55:13.020Z,20.92
2023-01-13T18:57:40.344Z,14.38
2023-01-13T19:00:11.710Z,20.08
2023-01-13T19:02:38.373Z,10.07
2023-01-13T19:05:05.381Z,19.27
2023-01-13T19:07:34.673Z,8.85
2023-01-13T19:10:01.541Z,22.20
2023-01-13T19:12:30.856Z,12.20
2023-01-13T19:14:58.224Z,10.80
2023-01-13T19:17:29.964Z,14.93
2023-01-13T19:19:58.292Z,14.00
2023-01-13T19:22:32.573Z,11.85
2023-01-13T19:25:00.046Z,16.20
2023-01-13T19:27:29.248Z,16.88
2023-01-13T19:30:00.445Z,12.25
2023-01-13T19:32:30.588Z,11.57
2023-01-13T19:34:59.359Z,8.43
2023-01-13T19:37:33.688Z,14.32
2023-01-13T19:40:00.208Z,12.48
2023-01-13T19:42:46.291Z,14.68
2023-01-13T19:45:26.636Z,8.70
2023-01-13T19:47:54.541Z,8.85
2023-01-13T19:50:20.976Z,10.20
2023-01-13T19:52:47.578Z,9.32
2023-01-13T19:55:14.233Z,15.73
2023-01-13T19:57:44.856Z,14.48
2023-01-13T20:00:25.016Z,8.30
2023-01-13T20:06:20.368Z,6.32
2023-01-13T20:09:00.503Z,12.10
2023-01-13T20:11:45.761Z,6.05
2023-01-13T20:14:12.829Z,6.28
2023-01-13T20:16:40.380Z,5.22
2023-01-13T20:19:06.744Z,7.78
2023-01-13T20:21:33.527Z,5.07
2023-01-13T20:23:59.907Z,4.40
2023-01-13T20:26:27.508Z,3.10
2023-01-13T20:28:53.890Z,5.20
2023-01-13T20:31:20.478Z,1.98
2023-01-13T20:33:49.834Z,6.78
2023-01-13T20:36:38.806Z,3.50
2023-01-13T20:39:08.113Z,2.63
2023-01-13T20:41:53.475Z,3.65
2023-01-13T20:44:19.891Z,2.67
2023-01-13T20:46:46.761Z,5.07
2023-01-13T20:49:15.051Z,2.33
2023-01-13T20:51:42.615Z,2.60
2023-01-13T20:54:09.285Z,3.72
2023-01-13T20:56:37.323Z,3.47
2023-01-13T20:59:04.868Z,3.03
2023-01-13T21:01:32.174Z,4.18
2023-01-13T21:04:00.068Z,4.90
2023-01-13T21:06:30.183Z,2.33
2023-01-13T21:08:56.584Z,5.60
2023-01-13T21:11:44.143Z,4.15
2023-01-13T21:14:40.999Z,4.43
2023-01-13T21:17:28.472Z,2.72
2023-01-13T21:19:55.507Z,6.97
2023-01-13T21:22:22.185Z,6.30
2023-01-13T21:24:48.656Z,4.25
2023-01-13T21:27:15.187Z,8.75
2023-01-13T21:29:41.664Z,8.85
2023-01-13T21:32:08.076Z,8.07
2023-01-13T21:34:35.383Z,6.97
2023-01-13T21:37:01.904Z,10.32
2023-01-13T21:39:28.586Z,10.63
2023-01-13T21:42:13.528Z,11.43
2023-01-13T21:44:58.606Z,9.45
2023-01-13T21:47:43.822Z,5.45
2023-01-13T21:50:13.385Z,9.88
2023-01-13T21:52:42.607Z,6.82
2023-01-13T21:55:17.060Z,10.63
2023-01-13T21:57:47.831Z,5.85
2023-01-13T22:00:15.814Z,6.28
2023-01-13T22:02:42.590Z,10.45
2023-01-13T22:05:11.125Z,10.35
2023-01-13T22:07:38.998Z,9.93
2023-01-13T22:10:07.966Z,8.65
2023-01-13T22:12:34.490Z,8.27
2023-01-13T22:15:00.894Z,4.53
2023-01-13T22:17:28.517Z,8.35
2023-01-13T22:19:58.629Z,3.60
2023-01-13T22:22:26.320Z,6.40
2023-01-13T22:24:53.901Z,9.73
2023-01-13T22:27:23.925Z,6.38
2023-01-13T22:29:52.319Z,10.88
2023-01-13T22:32:20.297Z,4.97
2023-01-13T22:34:48.820Z,8.60
2023-01-13T22:37:15.257Z,6.78
2023-01-13T22:39:42.425Z,12.27
2023-01-13T22:42:10.118Z,7.07
2023-01-13T22:44:36.931Z,4.63
2023-01-13T22:47:04.598Z,7.78
2023-01-13T22:49:31.020Z,5.55
2023-01-13T22:51:57.600Z,9.05
2023-01-13T22:54:23.973Z,8.57
2023-01-13T22:56:51.294Z,4.28
2023-01-13T22:59:17.731Z,6.68
2023-01-13T23:01:45.394Z,5.57
2023-01-13T23:04:15.323Z,4.20
2023-01-13T23:06:42.981Z,7.25
2023-01-13T23:09:09.928Z,6.20
2023-01-13T23:11:37.484Z,5.63
2023-01-13T23:14:06.453Z,7.80
2023-01-13T23:16:36.956Z,9.25
2023-01-13T23:19:04.487Z,7.45
2023-01-13T23:21:36.005Z,7.32
2023-01-13T23:24:04.361Z,6.10
2023-01-13T23:26:33.545Z,5.78
2023-01-13T23:29:02.295Z,7.88
2023-01-13T23:31:29.256Z,8.82
2023-01-13T23:33:55.718Z,8.45
2023-01-13T23:36:25.454Z,10.02
2023-01-13T23:38:52.507Z,11.23
2023-01-13T23:41:22.931Z,9.75
2023-01-13T23:43:54.220Z,10.02
2023-01-13T23:46:22.144Z,10.00
2023-01-13T23:48:49.760Z,9.98
2023-01-13T23:51:17.015Z,13.43
2023-01-13T23:53:46.066Z,8.80
2023-01-13T23:56:22.584Z,13.20
2023-01-13T23:58:49.827Z,8.27
